Time;durP1;ratioP1;P1;durP2;ratioP2;P2;SDS_P1;SDS_P2;PMS_P1;PMS_P2;Temp;Humidity;BMP_temperature;BMP_pressure;BME280_temperature;BME280_humidity;BME280_pressure;Samples;Min_cycle;Max_cycle;Signal;HPM_P1;HPM_P2
2022/08/24 00:01:15;;;;;;;2.67;2.47;;;18.20;77.00;;;;;;5054259;28;20653;-83
2022/08/24 00:03:44;;;;;;;2.90;2.70;;;18.30;75.70;;;;;;5067202;28;20750;-83
2022/08/24 00:06:15;;;;;;;3.60;2.80;;;18.40;74.50;;;;;;5058796;28;21060;-83
2022/08/24 00:08:43;;;;;;;3.20;2.90;;;18.50;74.00;;;;;;5048945;28;20606;-83
2022/08/24 00:11:10;;;;;;;4.77;2.93;;;18.40;74.30;;;;;;5066304;28;20725;-83
2022/08/24 00:13:38;;;;;;;3.47;2.87;;;18.20;75.60;;;;;;5050043;28;20655;-83
2022/08/24 00:16:07;;;;;;;2.77;2.57;;;18.30;75.40;;;;;;5062115;28;20621;-83
2022/08/24 00:18:34;;;;;;;3.77;3.47;;;18.10;76.20;;;;;;5068480;28;20617;-83
2022/08/24 00:21:01;;;;;;;3.13;2.90;;;18.10;76.00;;;;;;5048872;28;20737;-82
2022/08/24 00:23:28;;;;;;;2.67;2.47;;;18.10;76.00;;;;;;5056462;28;20673;-83
2022/08/24 00:25:56;;;;;;;2.90;2.60;;;18.10;76.30;;;;;;5067958;28;20614;-83
2022/08/24 00:28:23;;;;;;;3.20;3.00;;;18.00;75.80;;;;;;5059605;28;20622;-83
2022/08/24 00:30:50;;;;;;;4.40;2.70;;;18.00;75.80;;;;;;5065669;28;20797;-83
2022/08/24 00:33:19;;;;;;;2.90;2.70;;;18.10;74.90;;;;;;5052661;28;20653;-83
2022/08/24 00:35:46;;;;;;;3.40;3.10;;;18.00;76.20;;;;;;5048618;28;20706;-83
2022/08/24 00:38:13;;;;;;;2.97;2.73;;;18.10;74.70;;;;;;5053934;28;20692;-83
2022/08/24 00:40:43;;;;;;;3.50;3.20;;;18.20;74.30;;;;;;5048084;28;20634;-83
2022/08/24 00:43:11;;;;;;;2.97;2.77;;;18.10;74.10;;;;;;5058770;28;20702;-83
2022/08/24 00:45:42;;;;;;;3.23;2.93;;;18.00;74.80;;;;;;5058233;28;20622;-82
2022/08/24 00:48:14;;;;;;;3.37;2.37;;;18.00;75.60;;;;;;5067225;28;20720;-83
2022/08/24 00:50:45;;;;;;;3.30;2.70;;;18.00;76.90;;;;;;5052049;28;20688;-83
2022/08/24 00:53:19;;;;;;;3.57;3.27;;;17.90;77.70;;;;;;5051857;28;20684;-83
2022/08/24 00:55:49;;;;;;;3.43;3.13;;;17.90;77.50;;;;;;5048943;28;20670;-82
2022/08/24 00:58:19;;;;;;;2.83;2.60;;;18.00;75.80;;;;;;5056462;28;20725;-83
2022/08/24 01:00:50;;;;;;;3.43;3.03;;;18.00;75.40;;;;;;5064412;28;20617;-82
2022/08/24 01:03:18;;;;;;;2.90;2.60;;;17.90;75.60;;;;;;5065393;28;20768;-82
2022/08/24 01:05:47;;;;;;;3.83;3.53;;;17.80;76.00;;;;;;5066529;28;20625;-82
2022/08/24 01:08:15;;;;;;;3.77;3.00;;;17.70;76.30;;;;;;5066747;28;20644;-83
2022/08/24 01:10:46;;;;;;;2.70;2.50;;;17.80;75.80;;;;;;5066018;28;20648;-82
2022/08/24 01:13:15;;;;;;;2.87;2.67;;;17.80;75.30;;;;;;5061961;28;20633;-83
2022/08/24 01:15:48;;;;;;;4.23;2.80;;;17.70;75.10;;;;;;5056137;28;20714;-82
2022/08/24 01:21:14;;;;;;;2.90;2.60;;;17.60;76.10;;;;;;5055792;28;20637;-82
2022/08/24 01:23:46;;;;;;;3.20;2.90;;;17.50;76.70;;;;;;5055504;28;21291;-82
2022/08/24 01:26:18;;;;;;;3.40;3.10;;;17.50;77.00;;;;;;5067253;28;20621;-83
2022/08/24 01:28:49;;;;;;;4.37;3.30;;;17.50;77.00;;;;;;5058189;28;20630;-83
2022/08/24 01:31:18;;;;;;;3.43;3.13;;;17.50;77.40;;;;;;5052497;28;20692;-82
2022/08/24 01:33:49;;;;;;;3.37;3.10;;;17.50;76.10;;;;;;5057173;28;20629;-82
2022/08/24 01:36:24;;;;;;;2.40;2.20;;;17.50;76.30;;;;;;5065217;28;20645;-82
2022/08/24 01:38:55;;;;;;;3.20;2.90;;;17.50;77.50;;;;;;5057507;28;20727;-81
2022/08/24 01:41:23;;;;;;;5.13;3.30;;;17.50;77.90;;;;;;5056284;28;20614;-82
2022/08/24 01:43:50;;;;;;;2.90;2.53;;;17.50;76.90;;;;;;5055879;28;21008;-82
2022/08/24 01:46:17;;;;;;;4.00;3.50;;;17.50;77.50;;;;;;5062585;28;20630;-82
2022/08/24 01:48:45;;;;;;;2.87;2.67;;;17.50;78.30;;;;;;5058499;28;20638;-83
2022/08/24 01:51:12;;;;;;;5.23;3.23;;;17.40;78.70;;;;;;5047289;28;20725;-82
2022/08/24 01:53:40;;;;;;;2.87;2.63;;;17.40;78.60;;;;;;5048307;28;20707;-82
2022/08/24 01:56:09;;;;;;;2.80;2.30;;;17.40;77.70;;;;;;5047926;28;20658;-82
2022/08/24 01:58:43;;;;;;;4.80;2.83;;;17.40;78.10;;;;;;5063906;28;20632;-82
2022/08/24 02:01:11;;;;;;;3.10;2.80;;;17.40;78.40;;;;;;5061956;28;20621;-82
2022/08/24 02:03:38;;;;;;;2.53;2.33;;;17.30;77.90;;;;;;5065444;28;20677;-82
2022/08/24 02:06:05;;;;;;;2.80;2.60;;;17.30;78.40;;;;;;5066635;28;20636;-83
2022/08/24 02:08:35;;;;;;;3.00;2.70;;;17.30;78.80;;;;;;5062873;28;20641;-82
2022/08/24 02:11:03;;;;;;;2.43;2.33;;;17.30;78.50;;;;;;5058758;28;20648;-81
2022/08/24 02:13:32;;;;;;;2.90;2.60;;;17.30;77.40;;;;;;5055607;28;20634;-82
2022/08/24 02:16:00;;;;;;;2.43;2.20;;;17.30;78.90;;;;;;5050570;28;21183;-82
2022/08/24 02:18:27;;;;;;;3.10;2.80;;;17.30;79.30;;;;;;5055926;28;21034;-82
2022/08/24 02:20:54;;;;;;;2.60;2.40;;;17.30;79.20;;;;;;5070622;28;20626;-82
2022/08/24 02:23:22;;;;;;;3.07;2.80;;;17.30;79.60;;;;;;5053824;28;20768;-82
2022/08/24 02:25:50;;;;;;;3.10;2.63;;;17.30;79.70;;;;;;5059829;28;20667;-82
2022/08/24 02:28:19;;;;;;;3.43;3.13;;;17.20;80.00;;;;;;5067945;28;20629;-82
2022/08/24 02:30:48;;;;;;;3.03;2.73;;;17.10;80.50;;;;;;5058289;28;21017;-82
2022/08/24 02:33:15;;;;;;;3.20;2.90;;;17.00;80.80;;;;;;5067705;28;20617;-82
2022/08/24 02:35:43;;;;;;;3.37;2.67;;;17.00;81.10;;;;;;5066352;28;20683;-82
2022/08/24 02:38:11;;;;;;;3.23;2.93;;;16.90;81.40;;;;;;5055914;28;20622;-82
2022/08/24 02:40:39;;;;;;;2.67;2.47;;;16.90;81.50;;;;;;5050431;28;20613;-82
2022/08/24 02:43:06;;;;;;;3.90;2.97;;;16.80;81.90;;;;;;5068125;28;20637;-80
2022/08/24 02:45:38;;;;;;;3.93;3.53;;;16.80;81.90;;;;;;5059798;28;20632;-82
2022/08/24 02:48:09;;;;;;;3.00;2.80;;;16.80;81.60;;;;;;5050033;28;21234;-82
2022/08/24 02:50:39;;;;;;;2.73;2.53;;;16.80;81.60;;;;;;5060406;28;20632;-82
2022/08/24 02:53:07;;;;;;;3.00;2.37;;;16.80;82.40;;;;;;5063925;28;20630;-82
2022/08/24 02:55:35;;;;;;;3.10;2.90;;;16.60;83.60;;;;;;5064204;28;20653;-82
2022/08/24 02:58:02;;;;;;;3.60;3.40;;;16.60;84.10;;;;;;5050867;28;20623;-82
2022/08/24 03:00:29;;;;;;;3.90;3.60;;;16.60;85.60;;;;;;5062883;28;20617;-82
2022/08/24 03:02:56;;;;;;;3.30;3.00;;;16.50;85.30;;;;;;5062969;28;21226;-82
2022/08/24 03:05:25;;;;;;;3.70;2.77;;;16.50;85.30;;;;;;5050482;28;20662;-82
2022/08/24 03:07:52;;;;;;;3.20;3.00;;;16.40;85.60;;;;;;5062815;28;20621;-82
2022/08/24 03:10:20;;;;;;;4.13;3.73;;;16.40;85.90;;;;;;5062822;28;20614;-81
2022/08/24 03:12:47;;;;;;;3.13;2.60;;;16.50;85.70;;;;;;5056809;28;20720;-82
2022/08/24 03:15:14;;;;;;;2.97;2.77;;;16.50;86.10;;;;;;5069578;28;20985;-82
2022/08/24 03:17:41;;;;;;;2.83;2.60;;;16.50;85.30;;;;;;5063167;28;20696;-83
2022/08/24 03:20:13;;;;;;;4.30;2.90;;;16.50;85.70;;;;;;5049020;28;20614;-81
2022/08/24 03:22:41;;;;;;;2.77;2.57;;;16.50;86.30;;;;;;5052962;28;20697;-82
2022/08/24 03:25:10;;;;;;;2.23;2.03;;;16.50;85.60;;;;;;5049690;28;21183;-82
2022/08/24 03:27:37;;;;;;;4.27;3.60;;;16.50;86.80;;;;;;5066147;28;20636;-82
2022/08/24 03:30:06;;;;;;;3.40;3.10;;;16.50;86.80;;;;;;5068875;28;20729;-82
2022/08/24 03:32:33;;;;;;;3.70;3.23;;;16.40;86.50;;;;;;5058016;28;21042;-82
2022/08/24 03:35:00;;;;;;;3.53;3.23;;;16.40;87.30;;;;;;5049217;28;20717;-82
2022/08/24 03:37:27;;;;;;;3.20;2.90;;;16.40;88.00;;;;;;5056624;28;20622;-82
2022/08/24 03:39:55;;;;;;;2.93;2.73;;;16.20;88.60;;;;;;5063619;28;20615;-82
2022/08/24 03:42:22;;;;;;;3.53;3.20;;;16.20;89.50;;;;;;5053686;28;21120;-82
2022/08/24 03:44:49;;;;;;;5.03;3.20;;;16.20;89.80;;;;;;5064518;28;20669;-82
2022/08/24 03:47:17;;;;;;;4.17;3.70;;;16.30;89.50;;;;;;5048559;28;20670;-82
2022/08/24 03:49:44;;;;;;;3.03;2.77;;;16.30;90.00;;;;;;5051095;28;20625;-82
2022/08/24 03:52:11;;;;;;;4.03;3.73;;;16.20;90.20;;;;;;5062149;28;20700;-80
2022/08/24 03:54:38;;;;;;;3.43;3.20;;;16.20;90.70;;;;;;5051352;28;20693;-82
2022/08/24 03:57:06;;;;;;;5.33;4.40;;;16.10;90.80;;;;;;5051411;28;21183;-81
2022/08/24 03:59:33;;;;;;;3.53;3.23;;;16.10;91.10;;;;;;5052905;28;20631;-82
2022/08/24 04:02:00;;;;;;;3.50;3.20;;;16.10;91.10;;;;;;5053916;28;20613;-83
2022/08/24 04:04:30;;;;;;;3.47;3.17;;;16.00;91.10;;;;;;5052086;28;20685;-81
2022/08/24 04:06:58;;;;;;;3.80;3.50;;;16.80;91.60;;;;;;5068450;28;20610;-81
2022/08/24 04:09:38;;;;;;;4.40;3.90;;;15.90;91.20;;;;;;5048855;28;20626;-81
2022/08/24 04:12:07;;;;;;;4.03;3.30;;;15.90;91.50;;;;;;5063892;28;20622;-80
2022/08/24 04:14:42;;;;;;;4.50;4.10;;;15.90;91.80;;;;;;5064890;28;20634;-81
2022/08/24 04:17:18;;;;;;;3.50;3.20;;;15.90;91.60;;;;;;5047804;28;20610;-81
2022/08/24 04:19:58;;;;;;;3.07;2.87;;;15.90;91.00;;;;;;5052249;28;20714;-80
2022/08/24 04:22:29;;;;;;;3.30;3.00;;;16.00;91.20;;;;;;5065623;28;20622;-82
2022/08/24 04:25:05;;;;;;;3.50;3.30;;;15.90;90.80;;;;;;5068054;28;20659;-82
2022/08/24 04:27:39;;;;;;;3.33;3.03;;;16.00;90.80;;;;;;5068006;28;20617;-82
2022/08/24 04:30:12;;;;;;;4.20;3.80;;;16.00;91.30;;;;;;5053152;28;20645;-81
2022/08/24 04:32:42;;;;;;;3.37;3.07;;;16.00;90.70;;;;;;5053126;28;20733;-81
2022/08/24 04:35:11;;;;;;;3.57;3.27;;;16.00;91.20;;;;;;5057590;28;20688;-81
2022/08/24 04:37:42;;;;;;;6.03;4.20;;;15.90;91.50;;;;;;5056070;28;20906;-82
2022/08/24 04:43:14;;;;;;;4.73;4.27;;;15.90;91.00;;;;;;5055929;28;20657;-82
2022/08/24 04:45:46;;;;;;;4.53;3.70;;;16.00;90.30;;;;;;5056623;28;20871;-82
2022/08/24 04:48:17;;;;;;;5.87;4.17;;;15.90;90.50;;;;;;5047482;28;20968;-82
2022/08/24 04:50:48;;;;;;;5.00;4.10;;;15.90;90.70;;;;;;5059184;28;20625;-82
2022/08/24 04:53:25;;;;;;;3.80;3.50;;;16.00;90.50;;;;;;5067784;28;20625;-82
2022/08/24 04:55:59;;;;;;;5.47;3.30;;;16.00;90.80;;;;;;5054963;28;20953;-81
2022/08/24 04:58:29;;;;;;;3.57;3.17;;;15.90;91.50;;;;;;5047024;28;20625;-84
2022/08/24 05:01:07;;;;;;;3.47;2.80;;;16.00;91.70;;;;;;5065120;28;20622;-79
2022/08/24 05:03:36;;;;;;;3.40;3.20;;;16.10;91.30;;;;;;5060456;28;20654;-82
2022/08/24 05:06:06;;;;;;;3.77;3.47;;;16.10;91.60;;;;;;5054927;28;20762;-84
2022/08/24 05:08:55;;;;;;;3.37;3.10;;;16.20;91.90;;;;;;5065799;28;20716;-82
2022/08/24 05:11:31;;;;;;;4.80;4.03;;;16.20;92.10;;;;;;5057878;28;20701;-82
2022/08/24 05:14:09;;;;;;;3.87;3.57;;;16.40;91.90;;;;;;5048341;28;20638;-82
2022/08/24 05:16:39;;;;;;;4.40;3.70;;;16.40;91.70;;;;;;5066838;28;20601;-83
2022/08/24 05:19:07;;;;;;;4.87;3.27;;;16.60;91.50;;;;;;5066120;28;20755;-84
2022/08/24 05:21:34;;;;;;;4.63;3.87;;;16.80;90.90;;;;;;5055517;28;20706;-83
2022/08/24 05:24:08;;;;;;;4.03;3.73;;;16.70;91.10;;;;;;5047732;28;20615;-83
2022/08/24 05:26:37;;;;;;;3.33;3.03;;;16.70;91.50;;;;;;5054002;28;20610;-83
2022/08/24 05:29:10;;;;;;;5.43;4.93;;;16.70;91.80;;;;;;5062674;28;20625;-83
2022/08/24 05:31:37;;;;;;;3.50;3.20;;;17.10;91.90;;;;;;5063585;28;20626;-83
2022/08/24 05:34:10;;;;;;;4.33;3.43;;;16.90;91.40;;;;;;5061000;28;20715;-83
2022/08/24 05:36:44;;;;;;;4.57;2.77;;;17.00;90.80;;;;;;5052274;28;20641;-84
2022/08/24 05:39:29;;;;;;;3.67;3.37;;;17.20;89.90;;;;;;5047889;28;21199;-83
2022/08/24 05:42:32;;;;;;;2.90;2.70;;;17.20;90.10;;;;;;5068612;28;20608;-83
2022/08/24 05:45:06;;;;;;;3.10;2.80;;;17.20;90.10;;;;;;5063761;28;21646;-83
2022/08/24 05:47:40;;;;;;;3.00;2.80;;;17.20;90.60;;;;;;5054522;28;21248;-83
2022/08/24 05:50:11;;;;;;;3.43;2.90;;;17.30;90.30;;;;;;5052970;28;20660;-83
2022/08/24 05:52:40;;;;;;;3.87;3.50;;;17.40;89.70;;;;;;5059629;28;20635;-83
2022/08/24 05:55:12;;;;;;;3.90;2.80;;;17.40;90.10;;;;;;5055766;28;20705;-85
2022/08/24 05:57:53;;;;;;;4.83;3.37;;;17.50;89.30;;;;;;5070421;28;20815;-83
2022/08/24 06:00:32;;;;;;;4.20;2.93;;;17.50;89.70;;;;;;5058099;28;21195;-84
2022/08/24 06:03:01;;;;;;;2.93;2.70;;;17.60;88.10;;;;;;5058007;28;21179;-84
2022/08/24 06:05:46;;;;;;;3.90;3.30;;;17.90;86.20;;;;;;5069788;28;20661;-84
2022/08/24 06:08:18;;;;;;;3.77;3.37;;;17.90;86.00;;;;;;5057210;28;20644;-84
2022/08/24 06:10:49;;;;;;;2.60;2.50;;;18.10;84.80;;;;;;5068447;28;20626;-83
2022/08/24 06:13:22;;;;;;;3.37;3.07;;;18.30;84.00;;;;;;5054024;28;20721;-83
2022/08/24 06:16:06;;;;;;;2.83;2.63;;;18.30;84.50;;;;;;5050721;28;20672;-83
2022/08/24 06:18:34;;;;;;;2.80;2.53;;;18.30;84.40;;;;;;5056482;28;20660;-84
2022/08/24 06:21:05;;;;;;;3.27;3.03;;;18.30;84.90;;;;;;5052059;28;20692;-84
2022/08/24 06:23:32;;;;;;;4.57;3.17;;;18.50;83.90;;;;;;5050807;28;20629;-84
2022/08/24 06:28:44;;;;;;;3.30;3.00;;;18.70;81.80;;;;;;5050555;28;21490;-84
2022/08/24 06:31:12;;;;;;;3.13;2.77;;;18.90;81.20;;;;;;5051019;28;20668;-84
2022/08/24 06:33:40;;;;;;;2.90;2.70;;;18.90;81.80;;;;;;5061297;28;20634;-84
2022/08/24 06:36:07;;;;;;;2.40;2.30;;;19.10;81.20;;;;;;5055351;28;20680;-84
2022/08/24 06:38:35;;;;;;;3.53;3.30;;;19.20;80.90;;;;;;5051768;28;21060;-84
2022/08/24 06:41:01;;;;;;;2.70;2.50;;;19.20;80.70;;;;;;5052677;28;20719;-84
2022/08/24 06:43:29;;;;;;;3.03;2.80;;;19.20;80.60;;;;;;5068638;28;20649;-84
2022/08/24 06:45:57;;;;;;;4.07;3.67;;;19.60;78.60;;;;;;5058005;28;20654;-85
2022/08/24 06:48:25;;;;;;;4.00;3.03;;;19.70;78.70;;;;;;5050519;28;20668;-84
2022/08/24 06:50:54;;;;;;;5.90;3.47;;;19.90;77.80;;;;;;5060602;28;20966;-84
2022/08/24 06:53:20;;;;;;;5.30;3.17;;;20.00;76.00;;;;;;5062325;28;20628;-85
2022/08/24 06:55:49;;;;;;;3.23;3.03;;;20.10;76.80;;;;;;5056160;28;20694;-84
2022/08/24 06:58:16;;;;;;;4.00;2.97;;;20.30;75.30;;;;;;5058068;28;20696;-85
2022/08/24 07:00:44;;;;;;;4.13;3.83;;;20.40;75.30;;;;;;5057766;28;21015;-85
2022/08/24 07:03:11;;;;;;;6.33;5.03;;;20.60;75.30;;;;;;5056511;28;20679;-85
2022/08/24 07:05:40;;;;;;;3.43;3.13;;;20.60;75.90;;;;;;5058961;28;20695;-84
2022/08/24 07:08:08;;;;;;;3.57;2.90;;;20.50;75.00;;;;;;5060146;28;21048;-84
2022/08/24 07:10:35;;;;;;;3.00;2.70;;;20.70;72.90;;;;;;5059435;28;20625;-85
2022/08/24 07:13:02;;;;;;;3.67;3.37;;;20.60;71.70;;;;;;5058903;28;20640;-84
2022/08/24 07:15:30;;;;;;;3.30;2.77;;;20.80;72.60;;;;;;5060681;28;20665;-85
2022/08/24 07:17:56;;;;;;;2.97;2.77;;;21.00;72.70;;;;;;5057580;28;20622;-84
2022/08/24 07:20:24;;;;;;;2.63;2.43;;;21.20;71.50;;;;;;5057009;28;20668;-84
2022/08/24 07:22:53;;;;;;;3.37;2.77;;;21.10;71.80;;;;;;5059425;28;20618;-85
2022/08/24 07:25:21;;;;;;;2.80;2.60;;;21.40;68.50;;;;;;5059358;28;20666;-86
2022/08/24 07:27:48;;;;;;;3.00;2.30;;;21.30;69.90;;;;;;5056226;28;20621;-85
2022/08/24 07:30:16;;;;;;;5.27;3.53;;;21.30;69.50;;;;;;5056735;28;21050;-85
2022/08/24 07:32:43;;;;;;;2.97;2.73;;;21.30;70.40;;;;;;5056442;28;20718;-85
2022/08/24 07:35:10;;;;;;;3.30;3.00;;;21.40;70.80;;;;;;5059003;28;20613;-85
2022/08/24 07:37:37;;;;;;;2.70;2.50;;;21.60;70.20;;;;;;5056805;28;20630;-85
2022/08/24 07:40:07;;;;;;;3.20;2.97;;;21.90;68.50;;;;;;5051415;28;20630;-84
2022/08/24 07:42:34;;;;;;;3.00;2.80;;;22.00;69.80;;;;;;5067242;28;20622;-84
2022/08/24 07:45:01;;;;;;;2.67;2.43;;;21.80;69.20;;;;;;5057828;28;21908;-85
2022/08/24 07:47:28;;;;;;;3.20;2.77;;;21.80;68.40;;;;;;5063623;28;20636;-85
2022/08/24 07:49:55;;;;;;;2.90;2.70;;;22.10;67.10;;;;;;5049513;28;20688;-84
2022/08/24 07:52:22;;;;;;;3.20;3.00;;;22.20;66.30;;;;;;5056268;28;20625;-85
2022/08/24 07:54:49;;;;;;;2.73;2.53;;;22.50;67.40;;;;;;5049037;28;20734;-84
2022/08/24 07:57:18;;;;;;;3.37;3.10;;;22.60;66.90;;;;;;5067635;28;20749;-85
2022/08/24 07:59:46;;;;;;;3.30;3.00;;;23.00;65.20;;;;;;5058478;28;21031;-85
2022/08/24 08:02:13;;;;;;;4.40;4.00;;;22.80;65.70;;;;;;5061786;28;20630;-84
2022/08/24 08:04:40;;;;;;;4.10;3.80;;;23.10;65.70;;;;;;5066533;28;20614;-84
2022/08/24 08:07:07;;;;;;;3.53;2.80;;;23.30;64.90;;;;;;5065095;28;20637;-83
2022/08/24 08:09:37;;;;;;;3.80;3.30;;;23.40;64.80;;;;;;5068223;28;20622;-86
2022/08/24 08:12:05;;;;;;;3.10;2.90;;;23.70;63.40;;;;;;5049361;28;20645;-84
2022/08/24 08:14:33;;;;;;;3.00;2.80;;;23.80;62.80;;;;;;5057426;28;21195;-86
2022/08/24 08:17:00;;;;;;;7.73;2.93;;;23.90;63.40;;;;;;5069111;28;20613;-84
2022/08/24 08:19:27;;;;;;;2.90;2.70;;;24.00;61.20;;;;;;5049870;28;21271;-85
2022/08/24 08:24:41;;;;;;;3.40;3.10;;;24.10;59.90;;;;;;5057826;28;20772;-84
2022/08/24 08:27:08;;;;;;;3.17;2.57;;;24.20;61.50;;;;;;5067507;28;20665;-86
2022/08/24 08:29:39;;;;;;;3.93;3.50;;;24.40;59.90;;;;;;5066957;28;20751;-84
2022/08/24 08:32:06;;;;;;;2.57;2.37;;;24.40;59.80;;;;;;5049755;28;20637;-83
2022/08/24 08:34:33;;;;;;;1.90;1.80;;;24.50;58.60;;;;;;5054950;28;20662;-85
2022/08/24 08:37:01;;;;;;;2.30;2.10;;;24.60;57.90;;;;;;5050998;28;20619;-85
2022/08/24 08:39:29;;;;;;;2.50;2.40;;;24.60;57.60;;;;;;5068120;28;20703;-85
2022/08/24 08:42:32;;;;;;;2.10;2.00;;;24.70;56.60;;;;;;5066380;28;20621;-84
2022/08/24 08:45:21;;;;;;;2.50;2.30;;;24.60;57.30;;;;;;5048382;28;20630;-84
2022/08/24 08:48:30;;;;;;;2.17;2.07;;;24.50;57.30;;;;;;5060790;28;20716;-84
2022/08/24 08:51:26;;;;;;;2.07;1.97;;;24.80;57.90;;;;;;5059416;28;20638;-84
2022/08/24 08:54:21;;;;;;;2.43;2.30;;;25.00;56.90;;;;;;5052691;28;20715;-85
2022/08/24 08:57:12;;;;;;;2.93;2.30;;;25.20;55.40;;;;;;5049801;28;20647;-84
2022/08/24 08:59:51;;;;;;;1.87;1.77;;;25.20;55.40;;;;;;5053750;28;20695;-84
2022/08/24 09:02:32;;;;;;;2.63;2.20;;;25.30;52.70;;;;;;5059613;28;20648;-83
2022/08/24 09:05:25;;;;;;;1.90;1.80;;;25.30;53.60;;;;;;5064704;28;20621;-84
2022/08/24 09:07:59;;;;;;;2.50;2.20;;;25.40;53.70;;;;;;5053751;28;20729;-84
2022/08/24 09:10:55;;;;;;;1.73;1.63;;;25.30;52.90;;;;;;5052718;28;20631;-85
2022/08/24 09:13:33;;;;;;;1.77;1.67;;;25.70;51.40;;;;;;5048479;28;20725;-85
2022/08/24 09:16:13;;;;;;;1.13;1.10;;;25.80;51.60;;;;;;5046435;28;20713;-85
2022/08/24 09:18:58;;;;;;;2.10;2.00;;;25.70;52.30;;;;;;5046702;28;20700;-84
2022/08/24 09:21:44;;;;;;;1.97;1.80;;;25.90;50.60;;;;;;5049043;28;20626;-85
2022/08/24 09:24:25;;;;;;;1.77;1.67;;;26.00;52.30;;;;;;5047613;28;20968;-84
2022/08/24 09:26:59;;;;;;;1.90;1.80;;;26.00;51.70;;;;;;5051903;28;20649;-86
2022/08/24 09:29:49;;;;;;;1.67;1.57;;;26.40;50.20;;;;;;5066391;28;20625;-84
2022/08/24 09:32:35;;;;;;;1.70;1.60;;;26.30;50.50;;;;;;5066535;28;20650;-83
2022/08/24 09:35:05;;;;;;;1.93;1.80;;;26.60;50.70;;;;;;5057668;28;20630;-84
2022/08/24 09:37:41;;;;;;;1.60;1.50;;;26.60;50.90;;;;;;5056962;28;20701;-84
2022/08/24 09:40:29;;;;;;;1.70;1.60;;;26.70;50.60;;;;;;5059622;28;20728;-84
2022/08/24 09:43:38;;;;;;;1.53;1.43;;;26.60;51.50;;;;;;5061976;28;20609;-84
2022/08/24 09:46:28;;;;;;;1.63;1.53;;;26.80;50.20;;;;;;5059245;28;20657;-84
2022/08/24 09:49:40;;;;;;;1.90;1.80;;;26.90;50.40;;;;;;5059243;28;20641;-83
2022/08/24 09:52:45;;;;;;;1.70;1.60;;;26.80;50.00;;;;;;5018358;28;20630;-85
2022/08/24 09:55:44;;;;;;;1.60;1.50;;;27.00;50.10;;;;;;5025868;28;20619;-85
2022/08/24 09:58:21;;;;;;;1.23;1.13;;;27.00;50.20;;;;;;5032528;28;20746;-85
2022/08/24 10:00:59;;;;;;;2.57;1.50;;;26.80;50.30;;;;;;5054889;28;20633;-84
2022/08/24 10:03:45;;;;;;;1.50;1.40;;;27.00;48.60;;;;;;5047299;28;20634;-84
2022/08/24 10:06:20;;;;;;;1.73;1.57;;;27.10;48.70;;;;;;5061795;28;20683;-84
2022/08/24 10:09:03;;;;;;;1.87;1.77;;;27.10;50.00;;;;;;5063477;28;20609;-85
2022/08/24 10:11:40;;;;;;;1.73;1.63;;;27.20;49.40;;;;;;5046005;28;20741;-84
2022/08/24 10:14:16;;;;;;;1.60;1.50;;;27.20;50.50;;;;;;5058308;28;20623;-84
2022/08/24 10:16:50;;;;;;;1.00;1.00;;;27.20;48.10;;;;;;5044131;28;20713;-84
2022/08/24 10:19:40;;;;;;;1.70;1.60;;;27.20;49.30;;;;;;5043194;28;21259;-84
2022/08/24 10:22:18;;;;;;;1.20;1.10;;;27.20;49.70;;;;;;5046116;28;20645;-85
2022/08/24 10:25:00;;;;;;;1.80;1.70;;;27.30;47.60;;;;;;5061810;28;20629;-85
2022/08/24 10:27:40;;;;;;;1.20;1.10;;;27.50;48.60;;;;;;5065706;28;20673;-84
2022/08/24 10:30:36;;;;;;;2.40;1.60;;;27.60;50.10;;;;;;5049825;28;20614;-84
2022/08/24 10:33:13;;;;;;;1.57;1.47;;;27.70;48.80;;;;;;5049692;28;20642;-85
2022/08/24 10:35:55;;;;;;;3.13;1.57;;;27.70;48.80;;;;;;5064283;28;20747;-85
2022/08/24 10:41:53;;;;;;;1.60;1.50;;;27.80;50.60;;;;;;5069528;28;20724;-85
2022/08/24 10:44:40;;;;;;;2.03;1.83;;;28.00;49.60;;;;;;5068994;28;20624;-85
2022/08/24 10:47:16;;;;;;;2.53;2.33;;;28.00;49.80;;;;;;5049950;28;20689;-85
2022/08/24 10:50:27;;;;;;;1.87;1.77;;;27.90;50.10;;;;;;5064675;28;20720;-84
2022/08/24 10:53:26;;;;;;;2.17;1.97;;;28.00;49.90;;;;;;5058336;28;20679;-84
2022/08/24 10:56:09;;;;;;;1.70;1.60;;;28.00;49.00;;;;;;5042043;28;20645;-84
2022/08/24 10:58:52;;;;;;;1.63;1.53;;;28.20;49.40;;;;;;5057986;28;20633;-84
2022/08/24 11:01:32;;;;;;;2.50;2.30;;;28.20;48.70;;;;;;5057030;28;20629;-85
2022/08/24 11:04:03;;;;;;;1.80;1.70;;;28.20;48.50;;;;;;5049435;28;20799;-85
2022/08/24 11:06:32;;;;;;;1.80;1.70;;;28.30;50.20;;;;;;5065197;28;20674;-84
2022/08/24 11:09:05;;;;;;;1.83;1.73;;;28.30;50.40;;;;;;5055588;28;20736;-86
2022/08/24 11:11:35;;;;;;;1.87;1.47;;;28.40;48.10;;;;;;5061674;28;21001;-84
2022/08/24 11:14:06;;;;;;;2.53;2.20;;;28.30;49.50;;;;;;5052477;28;20729;-85
2022/08/24 11:16:36;;;;;;;2.00;1.90;;;28.40;49.20;;;;;;5048679;28;20627;-85
2022/08/24 11:19:09;;;;;;;1.73;1.63;;;28.40;49.40;;;;;;5061289;28;20624;-85
2022/08/24 11:21:44;;;;;;;1.70;1.60;;;28.60;48.30;;;;;;5051620;28;20641;-86
2022/08/24 11:24:24;;;;;;;1.60;1.50;;;28.60;47.40;;;;;;5049506;28;20660;-85
2022/08/24 11:26:56;;;;;;;1.77;1.67;;;28.70;47.40;;;;;;5068221;28;20681;-84
2022/08/24 11:29:30;;;;;;;1.70;1.60;;;28.90;47.70;;;;;;5055666;28;20777;-85
2022/08/24 11:31:58;;;;;;;1.80;1.70;;;28.80;47.20;;;;;;5049220;28;20685;-85
2022/08/24 11:34:35;;;;;;;1.50;1.40;;;29.00;48.30;;;;;;5051964;28;20634;-84
2022/08/24 11:37:03;;;;;;;2.13;1.70;;;29.20;47.30;;;;;;5051606;28;20680;-84
2022/08/24 11:39:34;;;;;;;1.50;1.37;;;29.40;46.70;;;;;;5052203;28;21407;-86
2022/08/24 11:42:10;;;;;;;1.80;1.70;;;29.60;46.10;;;;;;5055019;28;20637;-85
2022/08/24 11:44:48;;;;;;;1.60;1.50;;;29.70;44.20;;;;;;5052283;28;20625;-84
2022/08/24 11:47:35;;;;;;;1.50;1.40;;;29.80;44.70;;;;;;5067851;28;20696;-86
2022/08/24 11:50:16;;;;;;;1.83;1.57;;;30.00;45.80;;;;;;5048503;28;20643;-85
2022/08/24 11:52:52;;;;;;;1.40;1.00;;;30.30;46.80;;;;;;5047850;28;20717;-85
2022/08/24 11:55:29;;;;;;;1.10;1.00;;;30.70;43.50;;;;;;5060027;28;20642;-86
2022/08/24 11:58:02;;;;;;;1.23;1.13;;;31.20;42.60;;;;;;5050992;28;20656;-84
2022/08/24 12:00:41;;;;;;;1.70;1.60;;;31.70;41.90;;;;;;5061279;28;20625;-85
2022/08/24 12:03:18;;;;;;;1.20;1.13;;;32.30;42.70;;;;;;5051946;28;20649;-85
2022/08/24 12:05:55;;;;;;;1.57;1.30;;;33.10;41.70;;;;;;5060409;28;21116;-85
2022/08/24 12:08:27;;;;;;;1.23;1.13;;;33.20;41.40;;;;;;5052557;28;20629;-85
2022/08/24 12:11:01;;;;;;;1.30;1.20;;;33.70;38.70;;;;;;5052801;28;20625;-85
2022/08/24 12:13:35;;;;;;;4.20;1.30;;;34.20;37.90;;;;;;5065570;28;20724;-85
2022/08/24 12:16:11;;;;;;;1.10;1.10;;;34.60;38.30;;;;;;5048178;28;20648;-86
2022/08/24 12:18:49;;;;;;;1.40;1.30;;;35.10;36.30;;;;;;5057530;28;20998;-87
2022/08/24 12:21:19;;;;;;;0.90;0.90;;;35.40;36.20;;;;;;5066135;28;20657;-86
2022/08/24 12:23:49;;;;;;;1.77;1.67;;;35.40;36.70;;;;;;5054908;28;20209;-85
2022/08/24 12:26:24;;;;;;;1.08;1.08;;;35.20;37.10;;;;;;5046781;28;20204;-85
2022/08/24 12:28:55;;;;;;;1.45;1.35;;;35.10;36.20;;;;;;5059157;28;20194;-85
2022/08/24 12:31:34;;;;;;;1.25;1.20;;;35.00;35.40;;;;;;5056406;28;20215;-85
2022/08/24 12:34:10;;;;;;;1.42;1.25;;;34.90;36.50;;;;;;5059265;28;20195;-87
2022/08/24 12:36:43;;;;;;;1.50;1.40;;;35.20;35.80;;;;;;5049698;28;20283;-86
2022/08/24 12:39:14;;;;;;;1.05;1.05;;;35.40;36.30;;;;;;5061638;28;20335;-86
2022/08/24 12:41:51;;;;;;;0.98;0.88;;;35.80;35.80;;;;;;5054919;28;20203;-86
2022/08/24 12:44:22;;;;;;;1.92;1.40;;;36.00;35.00;;;;;;5058205;28;20287;-86
2022/08/24 12:46:54;;;;;;;1.17;1.17;;;36.40;34.80;;;;;;5047031;28;20239;-86
2022/08/24 12:49:28;;;;;;;1.17;1.08;;;36.80;34.30;;;;;;5060342;28;21015;-87
2022/08/24 12:52:12;;;;;;;1.23;1.20;;;36.90;33.70;;;;;;5055075;28;20213;-86
2022/08/24 12:55:00;;;;;;;1.92;1.83;;;37.00;33.80;;;;;;5054773;28;20220;-86
2022/08/24 12:57:45;;;;;;;1.10;1.10;;;37.40;33.00;;;;;;5055517;28;20238;-86
2022/08/24 13:00:16;;;;;;;0.98;0.98;;;37.70;33.90;;;;;;5059795;28;20215;-86
2022/08/24 13:02:55;;;;;;;1.10;1.10;;;37.80;33.90;;;;;;5066136;28;21044;-86
2022/08/24 13:05:22;;;;;;;1.10;1.10;;;38.10;32.90;;;;;;5057149;28;20234;-85
2022/08/24 13:07:53;;;;;;;2.05;1.55;;;38.10;33.20;;;;;;5047902;28;20201;-85
2022/08/24 13:10:43;;;;;;;1.00;1.00;;;38.30;31.90;;;;;;5049681;28;20213;-87
2022/08/24 13:13:20;;;;;;;1.13;1.02;;;38.20;31.50;;;;;;5047285;28;20210;-86
2022/08/24 13:16:11;;;;;;;1.10;1.08;;;38.30;32.10;;;;;;5047158;28;20210;-85
2022/08/24 13:19:08;;;;;;;1.20;1.20;;;38.60;33.10;;;;;;5046075;28;20218;-86
2022/08/24 13:21:49;;;;;;;0.70;0.70;;;38.40;32.90;;;;;;5054210;28;20210;-87
2022/08/24 13:24:52;;;;;;;0.90;0.90;;;38.90;32.70;;;;;;5047332;28;20206;-86
2022/08/24 13:27:48;;;;;;;1.00;1.00;;;38.90;31.80;;;;;;5066372;28;20210;-86
2022/08/24 13:30:37;;;;;;;1.23;1.13;;;39.30;30.10;;;;;;5066226;28;20203;-85
2022/08/24 13:33:07;;;;;;;1.15;1.05;;;38.90;32.40;;;;;;5064048;28;20205;-85
2022/08/24 13:35:58;;;;;;;1.00;1.00;;;38.80;32.10;;;;;;5064093;28;20219;-85